createdAt,value
2023-02-23T00:08:12.999Z,5.18
2023-02-23T00:10:40.203Z,5.00
2023-02-23T00:15:32.935Z,5.57
2023-02-23T00:18:00.099Z,5.70
2023-02-23T00:20:29.574Z,5.38
2023-02-23T00:25:24.329Z,4.88
2023-02-23T00:27:52.379Z,4.72
2023-02-23T00:30:20.028Z,4.43
2023-02-23T00:32:50.482Z,4.30
2023-02-23T00:35:17.853Z,4.90
2023-02-23T00:37:45.938Z,4.25
2023-02-23T00:40:16.665Z,4.50
2023-02-23T00:42:44.280Z,3.85
2023-02-23T00:55:30.982Z,4.15
2023-02-23T01:00:25.692Z,4.18
2023-02-23T01:02:54.707Z,4.18
2023-02-23T01:05:22.478Z,4.10
2023-02-23T01:10:20.689Z,4.13
2023-02-23T01:12:49.492Z,4.82
2023-02-23T01:30:05.073Z,3.78
2023-02-23T01:32:32.007Z,4.43
2023-02-23T01:34:58.885Z,4.18
2023-02-23T01:37:25.892Z,4.20
2023-02-23T01:39:52.982Z,4.80
2023-02-23T01:42:20.024Z,4.05
2023-02-23T01:44:48.095Z,4.60
2023-02-23T01:47:15.232Z,4.05
2023-02-23T01:52:13.327Z,3.55
2023-02-23T01:54:50.719Z,3.25
2023-02-23T01:57:20.900Z,3.80
2023-02-23T01:59:49.459Z,3.25
2023-02-23T02:02:17.184Z,3.60
2023-02-23T02:04:44.969Z,3.53
2023-02-23T02:07:17.151Z,3.75
2023-02-23T02:10:17.789Z,3.55
2023-02-23T02:15:17.628Z,3.50
2023-02-23T02:17:47.924Z,3.67
2023-02-23T02:20:33.416Z,3.78
2023-02-23T02:39:36.798Z,3.38
2023-02-23T02:42:06.651Z,3.75
2023-02-23T02:44:42.325Z,3.67
2023-02-23T02:47:12.830Z,3.05
2023-02-23T02:54:49.087Z,3.88
2023-02-23T02:57:17.524Z,3.17
2023-02-23T03:22:40.507Z,3.40
2023-02-23T03:25:32.471Z,3.47
2023-02-23T03:36:54.569Z,3.85
2023-02-23T04:02:10.363Z,3.90
2023-02-23T04:04:56.552Z,3.80
2023-02-23T04:15:46.437Z,4.45
2023-02-23T04:18:16.327Z,4.30
2023-02-23T04:20:43.425Z,3.53
2023-02-23T04:23:10.448Z,3.78
2023-02-23T04:25:37.621Z,3.28
2023-02-23T04:28:04.510Z,3.85
2023-02-23T04:30:31.522Z,4.03
2023-02-23T04:32:59.478Z,4.10
2023-02-23T04:35:28.999Z,3.92
2023-02-23T04:40:23.982Z,4.13
2023-02-23T04:42:51.453Z,4.03
2023-02-23T04:47:45.063Z,3.95
2023-02-23T04:50:12.686Z,3.85
2023-02-23T05:02:24.961Z,4.60
2023-02-23T05:04:52.084Z,3.95
2023-02-23T05:07:19.217Z,4.15
2023-02-23T05:09:46.354Z,3.78
2023-02-23T05:12:13.354Z,4.30
2023-02-23T05:14:40.195Z,4.40
2023-02-23T05:17:08.742Z,4.40
2023-02-23T05:19:36.552Z,5.25
2023-02-23T05:25:06.978Z,4.72
2023-02-23T05:27:34.580Z,4.78
2023-02-23T05:30:04.384Z,4.68
2023-02-23T05:37:22.762Z,5.22
2023-02-23T05:42:15.567Z,5.20
2023-02-23T05:44:42.667Z,5.00
2023-02-23T05:49:37.017Z,4.82
2023-02-23T05:52:04.193Z,5.47
2023-02-23T05:54:31.680Z,5.20
2023-02-23T05:57:01.475Z,4.70
2023-02-23T05:59:28.902Z,4.55
2023-02-23T06:04:23.731Z,4.60
2023-02-23T06:06:50.857Z,4.50
2023-02-23T06:14:10.481Z,4.68
2023-02-23T06:19:04.001Z,5.03
2023-02-23T06:21:31.566Z,5.07
2023-02-23T06:26:26.701Z,5.20
2023-02-23T06:28:53.688Z,6.03
2023-02-23T06:43:34.536Z,14.52
2023-02-23T06:48:27.942Z,5.50
2023-02-23T06:50:55.018Z,5.30
2023-02-23T06:58:14.522Z,5.30
2023-02-23T07:00:43.884Z,4.80
2023-02-23T07:08:02.882Z,6.15
2023-02-23T07:10:30.064Z,6.78
2023-02-23T07:12:57.506Z,7.53
2023-02-23T07:15:24.583Z,8.45
2023-02-23T07:17:53.079Z,9.52
2023-02-23T07:20:20.078Z,11.20
2023-02-23T07:22:46.946Z,11.05
2023-02-23T07:25:13.950Z,8.88
2023-02-23T07:27:42.411Z,7.95
2023-02-23T07:30:09.516Z,8.10
2023-02-23T07:37:27.649Z,8.20
2023-02-23T07:44:45.684Z,9.15
2023-02-23T07:47:12.822Z,10.68
2023-02-23T07:52:43.197Z,11.80
2023-02-23T07:55:10.916Z,12.13
2023-02-23T07:57:38.397Z,12.10
2023-02-23T08:02:39.468Z,11.48
2023-02-23T08:05:06.575Z,11.73
2023-02-23T08:07:33.853Z,12.35
2023-02-23T08:10:00.980Z,12.07
2023-02-23T08:12:28.113Z,12.57
2023-02-23T08:14:54.970Z,13.23
2023-02-23T08:17:22.105Z,12.07
2023-02-23T08:19:49.960Z,11.25
2023-02-23T08:22:16.963Z,11.98
2023-02-23T08:24:43.805Z,13.32
2023-02-23T08:34:31.143Z,10.88
2023-02-23T08:36:58.106Z,9.68
2023-02-23T08:39:25.354Z,10.27
2023-02-23T08:41:55.672Z,9.48
2023-02-23T08:44:22.892Z,9.43
2023-02-23T08:46:50.012Z,9.68
2023-02-23T08:56:40.164Z,9.25
2023-02-23T08:59:07.438Z,9.02
2023-02-23T09:04:37.681Z,8.25
2023-02-23T09:07:05.238Z,8.27
2023-02-23T09:09:32.725Z,7.97
2023-02-23T09:14:25.465Z,10.18
2023-02-23T09:16:52.418Z,7.07
2023-02-23T09:21:45.994Z,8.13
2023-02-23T09:24:13.027Z,8.25
2023-02-23T09:38:56.844Z,7.18
2023-02-23T09:46:42.185Z,7.15
2023-02-23T09:49:16.408Z,6.97
2023-02-23T09:56:47.591Z,6.70
2023-02-23T09:59:15.913Z,5.50
2023-02-23T10:07:00.598Z,5.05
2023-02-23T10:09:27.733Z,4.40
2023-02-23T10:12:10.334Z,4.70
2023-02-23T10:15:06.742Z,4.47
2023-02-23T10:17:36.820Z,4.90
2023-02-23T10:20:13.667Z,5.32
2023-02-23T10:27:48.875Z,5.93
2023-02-23T10:30:19.368Z,5.90
2023-02-23T10:32:46.265Z,5.05
2023-02-23T10:35:14.811Z,4.75
2023-02-23T10:37:42.039Z,4.90
2023-02-23T10:40:14.711Z,4.80
2023-02-23T10:42:41.833Z,5.00
2023-02-23T10:45:19.863Z,5.15
2023-02-23T10:47:47.197Z,5.68
2023-02-23T10:50:14.606Z,5.80
2023-02-23T10:58:00.809Z,6.28
2023-02-23T11:02:58.796Z,6.15
2023-02-23T11:05:33.586Z,6.60
2023-02-23T11:08:22.560Z,6.47
2023-02-23T11:10:58.891Z,8.30
2023-02-23T11:13:34.048Z,7.22
2023-02-23T11:18:28.448Z,8.02
2023-02-23T11:20:55.926Z,8.13
2023-02-23T11:23:24.918Z,8.68
2023-02-23T11:25:53.184Z,8.50
2023-02-23T11:28:22.557Z,9.52
2023-02-23T11:35:45.675Z,11.13
2023-02-23T11:41:04.217Z,11.27
2023-02-23T11:43:31.500Z,10.95
2023-02-23T11:45:59.972Z,12.15
2023-02-23T11:48:29.712Z,11.80
2023-02-23T11:50:57.515Z,15.05
2023-02-23T11:53:36.449Z,16.65
2023-02-23T11:58:39.577Z,17.60
2023-02-23T12:06:39.014Z,16.35
2023-02-23T12:09:14.993Z,19.23
2023-02-23T12:11:46.618Z,19.67
2023-02-23T12:14:17.516Z,15.52
2023-02-23T12:16:50.604Z,16.40
2023-02-23T12:19:25.778Z,18.63
2023-02-23T12:21:55.786Z,14.98
2023-02-23T12:27:13.075Z,16.38
2023-02-23T12:29:44.300Z,16.30
2023-02-23T12:32:29.740Z,17.42
2023-02-23T12:35:06.760Z,14.68
2023-02-23T12:37:45.167Z,16.48
2023-02-23T12:40:32.776Z,16.33
2023-02-23T12:43:06.302Z,16.08
2023-02-23T12:45:45.341Z,17.20
2023-02-23T12:48:16.170Z,16.63
2023-02-23T12:58:31.170Z,14.07
2023-02-23T13:01:05.046Z,17.50
2023-02-23T13:08:58.913Z,20.70
2023-02-23T13:11:34.657Z,18.63
2023-02-23T13:16:51.861Z,13.60
2023-02-23T13:21:57.098Z,18.52
2023-02-23T13:24:26.424Z,15.68
2023-02-23T13:27:01.466Z,17.25
2023-02-23T13:29:28.217Z,14.20
2023-02-23T13:31:55.481Z,12.40
2023-02-23T13:34:26.794Z,12.98
2023-02-23T13:39:37.846Z,12.75
2023-02-23T13:44:55.503Z,10.82
2023-02-23T13:47:31.389Z,11.80
2023-02-23T13:50:01.990Z,8.52
2023-02-23T13:52:42.200Z,11.82
2023-02-23T13:55:24.328Z,12.75
2023-02-23T13:57:51.907Z,11.85
2023-02-23T14:00:22.872Z,7.55
2023-02-23T14:02:50.527Z,9.75
2023-02-23T14:10:24.948Z,8.27
2023-02-23T14:17:57.922Z,6.78
2023-02-23T14:23:14.063Z,7.03
2023-02-23T14:33:41.777Z,6.78
2023-02-23T14:36:37.824Z,4.53
2023-02-23T14:39:09.644Z,7.38
2023-02-23T14:49:20.341Z,8.25
2023-02-23T14:54:34.261Z,8.00
2023-02-23T14:57:02.903Z,9.40
2023-02-23T14:59:37.331Z,6.78
2023-02-23T15:02:08.872Z,7.88
2023-02-23T15:04:38.825Z,7.53
2023-02-23T15:07:06.826Z,4.78
2023-02-23T15:12:12.234Z,8.77
2023-02-23T15:22:00.829Z,5.03
2023-02-23T15:24:31.090Z,5.80
2023-02-23T15:26:58.244Z,7.10
2023-02-23T15:34:20.668Z,5.40
2023-02-23T15:46:46.258Z,7.70
2023-02-23T15:56:50.245Z,5.00
2023-02-23T16:01:54.406Z,7.18
2023-02-23T16:14:49.278Z,5.78
2023-02-23T16:17:24.319Z,7.25
2023-02-23T16:22:27.143Z,6.28
2023-02-23T16:24:57.955Z,7.45
2023-02-23T16:27:26.856Z,7.28
2023-02-23T16:32:32.535Z,6.80
2023-02-23T16:39:56.165Z,7.57
2023-02-23T16:44:48.885Z,9.18
2023-02-23T16:49:51.037Z,10.52
2023-02-23T16:52:25.349Z,9.13
2023-02-23T17:07:18.303Z,13.35
2023-02-23T17:09:45.541Z,10.13
2023-02-23T17:12:13.432Z,12.70
2023-02-23T17:29:21.362Z,15.95
2023-02-23T17:31:48.789Z,15.02
2023-02-23T17:46:28.853Z,17.92
2023-02-23T17:48:56.399Z,18.70
2023-02-23T17:51:23.852Z,17.70
2023-02-23T17:53:50.780Z,16.90
2023-02-23T17:56:18.094Z,18.63
2023-02-23T17:58:46.035Z,15.75
2023-02-23T18:01:13.263Z,17.48
2023-02-23T18:08:35.975Z,16.35
2023-02-23T18:11:03.094Z,17.63
2023-02-23T18:13:30.464Z,17.25
2023-02-23T18:16:06.821Z,18.33
2023-02-23T18:18:34.322Z,17.67
2023-02-23T18:21:01.319Z,17.10
2023-02-23T18:25:54.960Z,16.98
2023-02-23T18:28:22.103Z,17.67
2023-02-23T18:30:49.102Z,19.30
2023-02-23T18:38:11.847Z,20.33
2023-02-23T18:40:39.259Z,19.33
2023-02-23T18:43:06.606Z,18.48
2023-02-23T18:45:35.908Z,21.02
2023-02-23T18:48:04.743Z,20.88
2023-02-23T18:57:54.646Z,21.77
2023-02-23T19:00:21.934Z,19.92
2023-02-23T19:12:40.192Z,22.10
2023-02-23T19:15:08.385Z,20.58
2023-02-23T19:17:36.104Z,18.42
2023-02-23T19:22:33.959Z,20.17
2023-02-23T19:25:00.947Z,24.25
2023-02-23T19:27:27.987Z,20.98
2023-02-23T19:29:54.952Z,24.17
2023-02-23T19:32:22.127Z,23.88
2023-02-23T19:37:14.899Z,26.67
2023-02-23T19:39:45.111Z,23.13
2023-02-23T19:42:16.010Z,26.17
2023-02-23T19:44:43.448Z,25.60
2023-02-23T19:47:10.490Z,24.65
2023-02-23T19:49:37.633Z,23.13
2023-02-23T19:52:04.575Z,24.50
2023-02-23T19:54:34.341Z,25.58
2023-02-23T19:57:01.248Z,25.63
2023-02-23T19:59:28.861Z,23.98
2023-02-23T20:01:55.804Z,23.60
2023-02-23T20:09:14.627Z,25.15
2023-02-23T20:16:34.553Z,25.77
2023-02-23T20:21:30.872Z,22.73
2023-02-23T20:23:58.427Z,24.42
2023-02-23T20:28:52.794Z,19.67
2023-02-23T20:31:21.994Z,20.85
2023-02-23T20:36:18.240Z,19.88
2023-02-23T20:38:45.244Z,23.15
2023-02-23T20:46:05.532Z,20.27
2023-02-23T20:58:23.710Z,18.95
2023-02-23T21:00:51.431Z,15.57
2023-02-23T21:03:18.434Z,19.58
2023-02-23T21:05:45.446Z,19.75
2023-02-23T21:13:06.220Z,21.52
2023-02-23T21:15:33.534Z,19.58
2023-02-23T21:18:00.820Z,21.55
2023-02-23T21:20:28.793Z,22.38
2023-02-23T21:22:56.168Z,20.60
2023-02-23T21:27:50.731Z,19.42
2023-02-23T21:30:21.449Z,20.75
2023-02-23T21:32:53.308Z,18.92
2023-02-23T21:35:20.856Z,17.83
2023-02-23T21:37:48.360Z,18.45
2023-02-23T21:45:13.468Z,18.05
2023-02-23T21:47:41.654Z,20.30
2023-02-23T21:50:13.928Z,18.60
2023-02-23T21:52:43.943Z,19.20
2023-02-23T21:55:20.661Z,19.52
2023-02-23T22:09:58.666Z,18.92
2023-02-23T22:14:53.738Z,20.13
2023-02-23T22:17:20.711Z,22.02
2023-02-23T22:22:15.714Z,15.23
2023-02-23T22:24:42.698Z,16.33
2023-02-23T22:27:10.678Z,18.45
2023-02-23T22:29:38.840Z,19.75
2023-02-23T22:32:06.316Z,21.40
2023-02-23T22:34:33.511Z,21.20
2023-02-23T22:37:00.456Z,21.38
2023-02-23T22:39:27.347Z,21.88
2023-02-23T22:51:42.512Z,20.63
2023-02-23T22:54:09.890Z,22.05
2023-02-23T22:59:05.581Z,22.20
2023-02-23T23:01:33.306Z,22.50
2023-02-23T23:04:00.391Z,24.40
2023-02-23T23:06:27.390Z,22.10
2023-02-23T23:08:56.208Z,22.83
2023-02-23T23:13:53.105Z,22.10
2023-02-23T23:16:30.953Z,22.80
2023-02-23T23:19:02.881Z,19.30
2023-02-23T23:21:30.900Z,24.17
2023-02-23T23:23:58.898Z,22.27
2023-02-23T23:31:24.116Z,20.10
2023-02-23T23:36:18.977Z,21.50
2023-02-23T23:38:45.930Z,21.55
2023-02-23T23:48:59.421Z,21.17
2023-02-23T23:53:58.602Z,18.25
2023-02-23T23:56:25.568Z,19.33
2023-02-23T23:58:54.250Z,19.63
